Terminal Aerodrome Forecast
Issued by NWS

Home | Current Version | Previous Version | Text Only | Print | Product List | Glossary On
Versions: 1 2 3 4 5 6 7 8 9 10 11 12 13 14 15 16 17 18
000
FTUS45 KVEF 222320
TAFVGT
TAF
KVGT 222320Z 2300/2324 22011G17KT P6SM VCSH FEW090 SCT110 BKN180
     FM230100 32011G17KT P6SM SCT090 BKN110
     FM230500 VRB06KT P6SM FEW090 BKN110
     FM231600 14006KT P6SM BKN090
     FM232100 23010G17KT P6SM BKN090=

USA.gov is the U.S. government's official web portal to all federal, state and local government web resources and services.